Time;durP1;ratioP1;P1;durP2;ratioP2;P2;SDS_P1;SDS_P2;PMS_P1;PMS_P2;Temp;Humidity;BMP_temperature;BMP_pressure;BME280_temperature;BME280_humidity;BME280_pressure;Samples;Min_cycle;Max_cycle;Signal;HPM_P1;HPM_P2
2023/06/14 00:00:58;;;;;;;2.78;1.65;;;20.20;60.40;;;;;;4982437;28;20033;-57
2023/06/14 00:03:25;;;;;;;3.80;1.80;;;20.30;60.90;;;;;;4980816;28;20144;-53
2023/06/14 00:05:51;;;;;;;4.22;1.92;;;20.20;60.60;;;;;;4982582;28;20031;-57
2023/06/14 00:08:18;;;;;;;4.15;2.17;;;20.20;60.90;;;;;;4965223;28;20118;-57
2023/06/14 00:10:44;;;;;;;2.92;1.90;;;20.20;61.00;;;;;;4982328;28;20022;-54
2023/06/14 00:13:10;;;;;;;4.43;1.60;;;20.20;61.00;;;;;;4964957;28;20027;-57
2023/06/14 00:15:36;;;;;;;4.60;2.03;;;20.30;60.70;;;;;;4955596;28;20297;-53
2023/06/14 00:18:03;;;;;;;4.60;2.20;;;20.30;60.90;;;;;;4983834;28;20470;-54
2023/06/14 00:20:32;;;;;;;3.67;2.08;;;20.20;61.30;;;;;;4967988;28;20421;-55
2023/06/14 00:22:59;;;;;;;3.47;1.98;;;20.10;62.10;;;;;;4966491;28;20026;-55
2023/06/14 00:25:27;;;;;;;3.53;2.03;;;19.80;63.40;;;;;;4980199;28;20030;-53
2023/06/14 00:27:57;;;;;;;2.90;1.77;;;19.80;63.30;;;;;;4984438;28;20022;-54
2023/06/14 00:30:23;;;;;;;3.53;1.67;;;19.80;63.20;;;;;;4976387;28;20092;-55
2023/06/14 00:32:49;;;;;;;4.93;2.17;;;19.60;63.60;;;;;;4967909;28;20098;-54
2023/06/14 00:35:15;;;;;;;5.60;2.13;;;19.60;64.30;;;;;;4977327;28;20039;-56
2023/06/14 00:37:41;;;;;;;5.00;2.72;;;19.50;63.90;;;;;;4985766;28;20038;-55
2023/06/14 00:40:07;;;;;;;3.13;1.70;;;19.30;65.80;;;;;;4973011;28;20046;-56
2023/06/14 00:42:33;;;;;;;6.45;1.88;;;19.30;66.00;;;;;;4987792;28;20026;-52
2023/06/14 00:45:00;;;;;;;4.90;1.98;;;19.30;65.10;;;;;;4955392;28;20121;-54
2023/06/14 00:47:26;;;;;;;3.53;1.75;;;19.40;64.80;;;;;;4987124;28;20041;-55
2023/06/14 00:49:55;;;;;;;4.20;1.92;;;19.40;64.60;;;;;;4975858;28;20097;-54
2023/06/14 00:52:24;;;;;;;4.47;2.30;;;19.30;64.50;;;;;;4986870;28;20041;-53
2023/06/14 00:54:50;;;;;;;3.85;1.73;;;19.30;64.80;;;;;;4976055;28;20074;-55
2023/06/14 00:57:16;;;;;;;4.57;1.85;;;19.20;65.30;;;;;;4981897;28;20027;-52
2023/06/14 00:59:45;;;;;;;7.97;2.10;;;19.00;65.20;;;;;;4975475;28;20045;-56
2023/06/14 01:02:11;;;;;;;2.90;1.88;;;19.00;66.00;;;;;;4984125;28;20061;-54
2023/06/14 01:04:41;;;;;;;3.45;1.73;;;19.00;66.50;;;;;;4967351;28;20050;-53
2023/06/14 01:07:45;;;;;;;2.97;2.00;;;19.20;66.30;;;;;;4943386;28;20518;-57
2023/06/14 01:10:52;;;;;;;4.90;1.98;;;19.40;66.10;;;;;;4956024;28;20058;-49
2023/06/14 01:13:23;;;;;;;4.03;2.03;;;19.40;65.50;;;;;;4965952;28;20031;-57
2023/06/14 01:15:50;;;;;;;4.72;2.20;;;19.50;65.70;;;;;;4975673;28;20053;-55
2023/06/14 01:18:17;;;;;;;5.03;2.03;;;19.60;64.50;;;;;;4963494;28;20081;-54
2023/06/14 01:20:45;;;;;;;4.07;1.98;;;19.60;64.80;;;;;;4964691;28;20026;-53
2023/06/14 01:23:13;;;;;;;4.22;1.85;;;19.70;64.40;;;;;;4979335;28;20028;-55
2023/06/14 01:25:40;;;;;;;12.05;3.60;;;19.70;64.30;;;;;;4972086;28;20075;-52
2023/06/14 01:28:11;;;;;;;4.22;2.17;;;19.70;64.50;;;;;;4981418;28;20070;-53
2023/06/14 01:30:44;;;;;;;3.85;1.90;;;19.70;64.60;;;;;;4961928;28;20053;-55
2023/06/14 01:33:17;;;;;;;6.50;2.00;;;19.70;64.40;;;;;;4979230;28;20532;-51
2023/06/14 01:35:47;;;;;;;3.70;2.10;;;19.70;64.60;;;;;;4960589;28;20027;-54
2023/06/14 01:38:14;;;;;;;3.58;1.90;;;19.60;64.60;;;;;;4980665;28;20023;-55
2023/06/14 01:40:42;;;;;;;8.95;2.60;;;19.50;65.20;;;;;;4964422;28;20022;-55
2023/06/14 01:43:09;;;;;;;5.93;2.25;;;19.30;65.20;;;;;;4962052;28;20098;-52
2023/06/14 01:45:36;;;;;;;3.05;2.05;;;19.40;65.90;;;;;;4976087;28;20022;-56
2023/06/14 01:48:04;;;;;;;4.60;2.15;;;19.50;65.20;;;;;;4968661;28;20027;-49
2023/06/14 01:50:31;;;;;;;4.32;2.22;;;19.50;65.30;;;;;;4974462;28;20030;-57
2023/06/14 01:52:57;;;;;;;4.75;2.33;;;19.50;65.20;;;;;;4965330;28;20035;-55
2023/06/14 01:55:24;;;;;;;3.00;1.70;;;19.50;65.30;;;;;;4979309;28;20039;-56
2023/06/14 01:57:51;;;;;;;3.10;1.88;;;19.40;65.30;;;;;;4967226;28;20031;-55
2023/06/14 02:00:18;;;;;;;3.97;1.85;;;19.40;65.60;;;;;;4975381;28;20465;-53
2023/06/14 02:02:45;;;;;;;4.53;2.45;;;19.30;65.50;;;;;;4963205;28;20050;-55
2023/06/14 02:05:11;;;;;;;4.32;1.90;;;19.20;66.10;;;;;;4974011;28;20027;-51
2023/06/14 02:07:37;;;;;;;7.35;2.40;;;19.20;66.10;;;;;;4987232;28;20371;-48
2023/06/14 02:10:05;;;;;;;5.28;1.80;;;19.20;66.00;;;;;;4971945;28;20133;-54
2023/06/14 02:12:31;;;;;;;4.05;2.22;;;19.10;65.90;;;;;;4987129;28;20038;-53
2023/06/14 02:14:57;;;;;;;3.63;1.98;;;19.20;65.90;;;;;;4969633;28;20085;-53
2023/06/14 02:17:24;;;;;;;5.53;2.03;;;19.10;66.00;;;;;;4986193;28;20045;-54
2023/06/14 02:19:50;;;;;;;4.15;1.98;;;19.10;66.30;;;;;;4959028;28;20034;-52
2023/06/14 02:22:16;;;;;;;5.10;2.53;;;19.00;66.50;;;;;;4987980;28;20098;-50
2023/06/14 02:24:43;;;;;;;3.20;2.05;;;19.00;66.70;;;;;;4980832;28;20035;-53
2023/06/14 02:27:11;;;;;;;4.55;2.10;;;18.90;67.10;;;;;;4979463;28;20026;-54
2023/06/14 02:29:37;;;;;;;3.17;2.13;;;18.90;67.40;;;;;;4958316;28;20034;-53
2023/06/14 02:32:05;;;;;;;5.05;2.03;;;18.80;67.40;;;;;;4990435;28;20557;-51
2023/06/14 02:34:30;;;;;;;6.90;2.63;;;18.60;68.00;;;;;;4960840;28;20035;-52
2023/06/14 02:36:57;;;;;;;3.55;1.83;;;18.50;68.30;;;;;;4990396;28;20053;-50
2023/06/14 02:39:23;;;;;;;4.07;2.08;;;18.40;68.70;;;;;;4976424;28;20073;-49
2023/06/14 02:41:52;;;;;;;7.35;2.28;;;18.40;69.00;;;;;;4990000;28;20429;-49
2023/06/14 02:44:19;;;;;;;4.60;2.95;;;18.40;69.60;;;;;;4961188;28;20050;-51
2023/06/14 02:46:45;;;;;;;3.63;2.00;;;18.50;69.80;;;;;;4994261;28;20022;-49
2023/06/14 02:49:11;;;;;;;3.10;1.92;;;18.40;69.90;;;;;;4972000;28;20082;-49
2023/06/14 02:51:37;;;;;;;7.80;2.22;;;18.50;70.20;;;;;;4981909;28;20030;-52
2023/06/14 02:54:03;;;;;;;6.75;2.88;;;18.60;70.40;;;;;;4978329;28;20117;-48
2023/06/14 02:56:29;;;;;;;4.82;2.58;;;18.40;70.50;;;;;;4988734;28;20405;-47
2023/06/14 02:58:55;;;;;;;3.90;2.22;;;18.30;70.80;;;;;;4962029;28;20041;-48
2023/06/14 03:01:21;;;;;;;4.28;2.08;;;18.30;71.00;;;;;;4987651;28;20113;-55
2023/06/14 03:03:47;;;;;;;6.55;2.78;;;18.30;71.40;;;;;;4973795;28;20335;-50
2023/06/14 03:06:13;;;;;;;8.10;2.35;;;18.20;71.70;;;;;;4985244;28;20133;-52
2023/06/14 03:08:41;;;;;;;3.25;2.03;;;18.20;71.80;;;;;;4976558;28;20032;-52
2023/06/14 03:11:07;;;;;;;4.15;2.22;;;18.10;72.10;;;;;;4981829;28;20057;-55
2023/06/14 03:13:35;;;;;;;3.72;2.40;;;18.10;72.10;;;;;;4974058;28;20030;-53
2023/06/14 03:16:03;;;;;;;5.22;2.45;;;18.10;72.10;;;;;;4984102;28;20129;-56
2023/06/14 03:18:35;;;;;;;4.50;2.15;;;18.10;72.60;;;;;;4982807;28;20110;-55
2023/06/14 03:21:02;;;;;;;5.38;2.45;;;18.10;72.50;;;;;;4967878;28;20034;-53
2023/06/14 03:23:28;;;;;;;4.32;2.28;;;17.90;72.90;;;;;;4965065;28;20038;-53
2023/06/14 03:25:54;;;;;;;4.82;2.08;;;18.00;72.90;;;;;;4966162;28;20034;-54
2023/06/14 03:28:19;;;;;;;6.90;2.30;;;18.00;73.10;;;;;;4965344;28;20128;-54
2023/06/14 03:30:45;;;;;;;5.20;2.38;;;17.90;73.50;;;;;;4983277;28;20422;-54
2023/06/14 03:33:11;;;;;;;3.90;2.45;;;17.70;74.10;;;;;;4964942;28;20027;-54
2023/06/14 03:35:37;;;;;;;5.82;2.38;;;17.70;74.40;;;;;;4949068;28;20062;-53
2023/06/14 03:38:03;;;;;;;5.60;2.25;;;17.60;75.30;;;;;;4966670;28;20483;-50
2023/06/14 03:40:29;;;;;;;3.40;2.20;;;17.60;75.30;;;;;;4977777;28;20031;-55
2023/06/14 03:42:55;;;;;;;4.80;2.85;;;17.50;75.30;;;;;;4984372;28;20030;-54
2023/06/14 03:45:21;;;;;;;7.95;3.50;;;17.40;76.00;;;;;;4974988;28;20043;-55
2023/06/14 03:47:47;;;;;;;5.65;2.67;;;17.30;77.10;;;;;;4986677;28;20478;-55
2023/06/14 03:50:13;;;;;;;4.60;2.42;;;17.30;76.60;;;;;;4961383;28;20130;-54
2023/06/14 03:52:42;;;;;;;3.65;2.33;;;17.40;76.70;;;;;;4987601;28;20181;-55
2023/06/14 03:55:08;;;;;;;3.50;1.98;;;17.40;77.00;;;;;;4977155;28;20619;-50
2023/06/14 03:57:34;;;;;;;6.65;2.72;;;17.40;76.90;;;;;;4988017;28;20106;-52
2023/06/14 04:00:00;;;;;;;5.45;2.60;;;17.30;77.10;;;;;;4976858;28;20144;-52
2023/06/14 04:02:28;;;;;;;4.57;2.45;;;17.20;77.60;;;;;;4988870;28;20053;-52
2023/06/14 04:04:54;;;;;;;4.57;2.75;;;17.00;78.30;;;;;;4971398;28;20030;-53
2023/06/14 04:07:20;;;;;;;5.30;2.55;;;16.80;79.30;;;;;;4988808;28;20493;-50
2023/06/14 04:09:47;;;;;;;7.60;2.67;;;16.80;79.60;;;;;;4976875;28;20022;-53
2023/06/14 04:12:12;;;;;;;5.03;2.35;;;16.70;80.40;;;;;;4987129;28;20463;-54
2023/06/14 04:14:40;;;;;;;4.15;2.47;;;16.70;80.60;;;;;;4976110;28;20073;-53
2023/06/14 04:17:06;;;;;;;6.13;2.60;;;16.70;81.00;;;;;;4988170;28;20034;-53
2023/06/14 04:19:32;;;;;;;4.82;2.70;;;16.70;81.40;;;;;;4958974;28;20049;-54
2023/06/14 04:22:02;;;;;;;6.53;2.50;;;16.80;81.00;;;;;;4987751;28;20042;-52
2023/06/14 04:24:32;;;;;;;5.38;2.45;;;16.70;81.80;;;;;;4971598;28;20039;-52
2023/06/14 04:27:01;;;;;;;5.15;2.55;;;16.80;81.50;;;;;;4988216;28;20034;-54
2023/06/14 04:29:29;;;;;;;4.97;2.63;;;16.90;81.00;;;;;;4975128;28;20035;-53
2023/06/14 04:31:58;;;;;;;7.35;2.42;;;16.90;80.90;;;;;;4970431;28;20027;-55
2023/06/14 04:34:32;;;;;;;5.50;2.28;;;16.90;81.00;;;;;;4973960;28;20038;-55
2023/06/14 04:36:59;;;;;;;4.88;2.30;;;17.00;81.10;;;;;;4987959;28;20087;-54
2023/06/14 04:39:26;;;;;;;5.55;3.00;;;17.00;81.00;;;;;;4974857;28;20042;-54
2023/06/14 04:41:52;;;;;;;6.60;2.80;;;17.10;80.90;;;;;;4987690;28;20022;-55
2023/06/14 04:44:19;;;;;;;5.60;3.15;;;17.10;81.80;;;;;;4974922;28;20042;-52
2023/06/14 04:46:46;;;;;;;5.18;2.70;;;17.00;82.30;;;;;;4987698;28;20022;-52
2023/06/14 04:49:16;;;;;;;3.45;2.33;;;17.10;82.20;;;;;;4957677;28;20031;-55
2023/06/14 04:51:42;;;;;;;4.90;2.53;;;17.30;82.30;;;;;;4987417;28;20104;-56
2023/06/14 04:54:16;;;;;;;4.03;2.60;;;17.60;80.70;;;;;;4958416;28;20058;-54
2023/06/14 04:56:42;;;;;;;4.35;2.35;;;17.70;80.10;;;;;;4979232;28;20741;-54
2023/06/14 04:59:08;;;;;;;5.05;2.55;;;17.80;80.30;;;;;;4975494;28;20058;-56
2023/06/14 05:01:35;;;;;;;6.88;3.45;;;17.70;80.60;;;;;;4987034;28;20022;-55
2023/06/14 05:04:01;;;;;;;4.38;2.45;;;17.60;80.40;;;;;;4952065;28;20047;-53
2023/06/14 05:06:27;;;;;;;7.28;2.40;;;17.80;79.90;;;;;;4984655;28;20081;-53
2023/06/14 05:08:53;;;;;;;6.85;2.80;;;17.80;79.50;;;;;;4975954;28;20359;-54
2023/06/14 05:11:20;;;;;;;5.63;2.63;;;17.80;79.80;;;;;;4965638;28;20023;-52
2023/06/14 05:13:46;;;;;;;3.95;2.35;;;17.60;81.00;;;;;;4973577;28;20641;-52
2023/06/14 05:16:13;;;;;;;4.53;2.30;;;17.60;80.50;;;;;;4975076;28;20170;-53
2023/06/14 05:18:40;;;;;;;2.80;2.20;;;17.60;80.70;;;;;;4978932;28;20728;-53
2023/06/14 05:21:06;;;;;;;5.43;2.47;;;17.60;81.00;;;;;;4983069;28;20084;-53
2023/06/14 05:23:32;;;;;;;4.93;2.08;;;17.70;80.90;;;;;;4979938;28;20065;-50
2023/06/14 05:25:58;;;;;;;8.77;2.97;;;17.70;80.70;;;;;;4981057;28;20498;-58
2023/06/14 05:28:24;;;;;;;7.07;2.50;;;17.90;80.60;;;;;;4977868;28;20110;-50
2023/06/14 05:30:51;;;;;;;3.83;2.40;;;18.10;80.80;;;;;;4963927;28;20080;-54
2023/06/14 05:33:17;;;;;;;5.10;2.53;;;18.20;79.90;;;;;;4961842;28;20046;-56
2023/06/14 05:35:43;;;;;;;3.78;2.08;;;18.40;79.80;;;;;;4975721;28;20019;-51
2023/06/14 05:38:08;;;;;;;6.13;2.35;;;18.50;79.60;;;;;;4973538;28;20513;-56
2023/06/14 05:40:34;;;;;;;3.53;2.17;;;18.50;79.00;;;;;;4976442;28;20030;-55
2023/06/14 05:43:00;;;;;;;4.75;2.65;;;18.70;79.40;;;;;;4981887;28;20019;-54
2023/06/14 05:45:26;;;;;;;5.57;2.70;;;18.60;79.00;;;;;;4978964;28;20046;-54
2023/06/14 05:47:54;;;;;;;4.72;2.10;;;18.70;78.90;;;;;;4983429;28;20073;-52
2023/06/14 05:50:20;;;;;;;6.68;2.45;;;18.90;78.60;;;;;;4961600;28;20161;-60
2023/06/14 05:52:46;;;;;;;6.28;2.65;;;19.00;78.10;;;;;;4984737;28;20113;-59
2023/06/14 05:55:12;;;;;;;6.38;2.92;;;18.90;78.00;;;;;;4972729;28;20042;-60
2023/06/14 05:57:38;;;;;;;4.15;2.22;;;19.00;78.30;;;;;;4969259;28;20030;-60
2023/06/14 06:00:11;;;;;;;3.92;2.22;;;19.30;77.60;;;;;;4961971;28;20054;-57
2023/06/14 06:02:37;;;;;;;5.30;2.40;;;19.70;76.40;;;;;;4977577;28;20046;-60
2023/06/14 06:05:03;;;;;;;3.08;1.73;;;20.00;75.40;;;;;;4974453;28;20482;-61
2023/06/14 06:07:28;;;;;;;4.97;2.42;;;20.10;74.50;;;;;;4989627;28;20034;-69
2023/06/14 06:09:54;;;;;;;2.88;1.77;;;20.30;73.30;;;;;;4973822;28;20058;-58
2023/06/14 06:12:20;;;;;;;4.63;2.40;;;20.20;72.60;;;;;;4973764;28;20015;-54
2023/06/14 06:14:45;;;;;;;5.63;2.40;;;20.10;73.30;;;;;;4973818;28;21442;-54
2023/06/14 06:17:11;;;;;;;3.60;2.05;;;20.20;72.90;;;;;;4973536;28;20035;-53
2023/06/14 06:19:37;;;;;;;4.15;2.17;;;20.20;73.20;;;;;;4978370;28;20034;-54
2023/06/14 06:22:06;;;;;;;5.82;2.28;;;20.30;72.80;;;;;;4982173;28;20461;-55
2023/06/14 06:24:32;;;;;;;6.78;3.38;;;20.20;72.30;;;;;;4968454;28;20438;-53
2023/06/14 06:26:58;;;;;;;3.10;2.05;;;20.20;72.30;;;;;;4953489;28;20138;-54
2023/06/14 06:29:23;;;;;;;4.65;2.45;;;20.00;72.70;;;;;;4956338;28;20106;-55
2023/06/14 06:31:49;;;;;;;2.95;1.92;;;20.10;73.10;;;;;;4985124;28;20030;-51
2023/06/14 06:34:15;;;;;;;9.32;2.13;;;20.20;72.90;;;;;;4974625;28;20494;-52
2023/06/14 06:36:42;;;;;;;12.23;2.97;;;20.60;72.40;;;;;;4988726;28;20022;-53
2023/06/14 06:39:10;;;;;;;5.13;2.67;;;20.60;71.50;;;;;;4959510;28;20034;-54
2023/06/14 06:41:39;;;;;;;6.32;2.13;;;20.50;71.80;;;;;;4988275;28;20026;-50
2023/06/14 06:44:06;;;;;;;4.10;2.35;;;20.40;71.50;;;;;;4976422;28;20057;-53
2023/06/14 06:46:34;;;;;;;4.00;1.95;;;20.50;71.00;;;;;;4970710;28;20081;-55
2023/06/14 06:49:00;;;;;;;4.18;1.88;;;20.60;71.40;;;;;;4960338;28;20043;-53
2023/06/14 06:51:26;;;;;;;11.68;2.25;;;20.40;71.80;;;;;;4988592;28;20049;-54
2023/06/14 06:53:53;;;;;;;2.70;1.65;;;20.50;71.40;;;;;;4977156;28;20026;-52
2023/06/14 06:56:21;;;;;;;3.03;1.83;;;20.70;72.00;;;;;;4987948;28;20410;-54
2023/06/14 06:58:47;;;;;;;11.68;2.28;;;20.80;70.90;;;;;;4979584;28;20030;-53
2023/06/14 07:01:13;;;;;;;5.78;2.10;;;20.70;70.80;;;;;;4978151;28;20038;-50
2023/06/14 07:03:38;;;;;;;3.88;1.88;;;20.80;70.30;;;;;;4960362;28;20042;-53
2023/06/14 07:06:04;;;;;;;4.25;2.28;;;21.00;70.20;;;;;;4981432;28;20441;-55
2023/06/14 07:08:30;;;;;;;6.55;2.35;;;21.10;70.70;;;;;;4975961;28;20710;-49
2023/06/14 07:10:56;;;;;;;4.97;1.77;;;21.20;70.20;;;;;;4962639;28;20039;-52
2023/06/14 07:13:21;;;;;;;10.70;1.95;;;21.40;69.70;;;;;;4978866;28;20024;-51
2023/06/14 07:15:47;;;;;;;4.25;1.63;;;21.80;68.90;;;;;;4975733;28;20639;-50
2023/06/14 07:18:13;;;;;;;7.05;2.00;;;21.90;68.50;;;;;;4971825;28;20054;-52
2023/06/14 07:20:40;;;;;;;3.83;1.77;;;21.80;68.20;;;;;;4983671;28;20061;-49
2023/06/14 07:23:05;;;;;;;4.13;2.13;;;21.80;68.30;;;;;;4983906;28;20455;-54
2023/06/14 07:25:31;;;;;;;3.40;1.92;;;21.80;68.30;;;;;;4982338;28;20069;-49
2023/06/14 07:27:57;;;;;;;4.70;1.92;;;22.00;68.10;;;;;;4962260;28;20118;-54
2023/06/14 07:30:25;;;;;;;2.65;1.70;;;22.10;67.70;;;;;;4969886;28;20098;-52
2023/06/14 07:32:53;;;;;;;3.15;1.52;;;21.90;67.90;;;;;;4986234;28;20098;-51
2023/06/14 07:35:18;;;;;;;6.65;1.40;;;21.90;67.90;;;;;;4975040;28;20050;-55
2023/06/14 07:37:46;;;;;;;5.93;1.90;;;22.00;68.00;;;;;;4985004;28;20039;-52
2023/06/14 07:40:13;;;;;;;3.58;1.73;;;22.20;67.60;;;;;;4961300;28;20034;-53
2023/06/14 07:42:39;;;;;;;3.40;1.88;;;22.20;67.20;;;;;;4988273;28;20027;-50
2023/06/14 07:45:06;;;;;;;1.75;1.20;;;22.30;67.10;;;;;;4977613;28;20031;-54
2023/06/14 07:47:32;;;;;;;5.78;2.00;;;22.40;66.90;;;;;;4989503;28;20114;-48
2023/06/14 07:49:58;;;;;;;3.83;1.67;;;22.20;67.10;;;;;;4977498;28;20121;-51
2023/06/14 07:52:24;;;;;;;3.53;1.80;;;22.30;66.70;;;;;;4988659;28;20105;-52
2023/06/14 07:54:50;;;;;;;3.10;1.70;;;22.50;66.10;;;;;;4973357;28;20037;-54
2023/06/14 07:57:16;;;;;;;13.02;2.00;;;22.50;66.00;;;;;;4971759;28;20343;-53
2023/06/14 07:59:42;;;;;;;3.60;1.70;;;22.30;66.70;;;;;;4977178;28;20026;-51
2023/06/14 08:02:08;;;;;;;4.95;1.65;;;22.40;66.80;;;;;;4988080;28;20034;-55
2023/06/14 08:04:34;;;;;;;4.75;2.03;;;22.50;66.00;;;;;;4968480;28;20030;-55
2023/06/14 08:07:00;;;;;;;3.72;1.80;;;22.70;65.50;;;;;;4958113;28;20030;-65
2023/06/14 08:09:28;;;;;;;3.95;1.38;;;22.70;65.00;;;;;;4972627;28;20495;-66
2023/06/14 08:11:54;;;;;;;3.65;1.55;;;22.80;64.80;;;;;;4988108;28;20077;-66
2023/06/14 08:14:20;;;;;;;2.83;1.40;;;22.70;64.00;;;;;;4975772;28;20193;-69
2023/06/14 08:16:46;;;;;;;3.65;1.70;;;22.60;64.20;;;;;;4988392;28;20517;-69
2023/06/14 08:19:12;;;;;;;3.45;1.95;;;22.60;64.60;;;;;;4958652;28;20425;-69
2023/06/14 08:21:38;;;;;;;3.17;1.48;;;22.60;65.20;;;;;;4970072;28;20108;-69
2023/06/14 08:24:04;;;;;;;4.13;1.90;;;22.60;65.10;;;;;;4976333;28;20046;-69
2023/06/14 08:26:31;;;;;;;3.33;1.75;;;22.80;65.60;;;;;;4987307;28;20033;-69
2023/06/14 08:28:57;;;;;;;2.50;1.65;;;22.70;65.50;;;;;;4974899;28;20098;-68
2023/06/14 08:31:25;;;;;;;7.45;1.63;;;22.80;64.90;;;;;;4967473;28;20034;-68
2023/06/14 08:33:51;;;;;;;6.95;2.50;;;22.90;64.40;;;;;;4960621;28;20053;-69
2023/06/14 08:36:16;;;;;;;3.88;1.77;;;22.90;63.60;;;;;;4985485;28;20072;-69
2023/06/14 08:38:42;;;;;;;9.45;2.22;;;22.80;64.60;;;;;;4965441;28;20050;-69
2023/06/14 08:41:13;;;;;;;2.35;1.30;;;22.90;64.40;;;;;;4984300;28;20466;-69
2023/06/14 08:43:39;;;;;;;3.88;1.77;;;23.00;63.30;;;;;;4967785;28;20030;-69
2023/06/14 08:46:08;;;;;;;3.38;1.70;;;23.00;63.20;;;;;;4983260;28;20034;-69
2023/06/14 08:48:34;;;;;;;3.55;1.48;;;22.80;63.40;;;;;;4964164;28;20610;-69
2023/06/14 08:51:03;;;;;;;4.53;1.48;;;22.80;64.00;;;;;;4965122;28;20602;-69
2023/06/14 08:53:33;;;;;;;8.10;1.80;;;23.00;63.80;;;;;;4980611;28;20023;-69
2023/06/14 08:56:04;;;;;;;6.35;1.67;;;23.10;62.50;;;;;;4964784;28;20061;-69
2023/06/14 08:58:31;;;;;;;1.92;1.50;;;23.10;63.30;;;;;;4964096;28;20082;-70
2023/06/14 09:01:02;;;;;;;2.55;1.52;;;23.10;61.80;;;;;;4963156;28;20121;-69
2023/06/14 09:03:30;;;;;;;4.40;1.95;;;23.10;62.30;;;;;;4963656;28;20022;-69
2023/06/14 09:06:00;;;;;;;2.97;1.58;;;23.10;62.50;;;;;;4964472;28;20054;-69
2023/06/14 09:08:30;;;;;;;3.25;1.67;;;23.20;62.60;;;;;;4963667;28;20109;-69
2023/06/14 09:10:57;;;;;;;2.28;1.30;;;23.30;63.50;;;;;;4960533;28;20100;-70
2023/06/14 09:13:22;;;;;;;4.82;1.45;;;23.50;58.30;;;;;;4966338;28;20505;-69
2023/06/14 09:15:49;;;;;;;2.58;1.67;;;23.60;58.70;;;;;;4977729;28;20042;-69
2023/06/14 09:18:15;;;;;;;3.33;1.55;;;23.70;58.90;;;;;;4963609;28;20473;-69
2023/06/14 09:20:41;;;;;;;6.07;2.15;;;23.80;59.10;;;;;;4981222;28;20134;-69
2023/06/14 09:23:07;;;;;;;3.50;1.48;;;23.80;60.50;;;;;;4964192;28;20027;-69
2023/06/14 09:25:43;;;;;;;3.70;1.65;;;23.90;60.60;;;;;;4980822;28;20026;-68
2023/06/14 09:28:10;;;;;;;5.90;2.28;;;24.00;59.20;;;;;;4981214;28;20027;-69
2023/06/14 09:30:39;;;;;;;5.95;1.88;;;24.00;59.80;;;;;;4981255;28;20030;-69
2023/06/14 09:33:05;;;;;;;2.42;1.20;;;24.00;59.70;;;;;;4962832;28;20020;-68
2023/06/14 09:35:32;;;;;;;3.20;1.42;;;24.10;57.70;;;;;;4966918;28;20108;-69
2023/06/14 09:37:58;;;;;;;3.45;1.55;;;24.10;58.50;;;;;;4982929;28;20035;-68
2023/06/14 09:40:24;;;;;;;2.83;1.42;;;24.20;58.60;;;;;;4979344;28;20176;-68
2023/06/14 09:42:51;;;;;;;3.08;1.70;;;24.10;58.50;;;;;;4966191;28;20125;-69
2023/06/14 09:45:21;;;;;;;2.83;1.30;;;24.10;59.40;;;;;;4954936;28;20039;-69
2023/06/14 09:47:49;;;;;;;2.00;1.27;;;24.20;59.60;;;;;;4968044;28;20089;-69
2023/06/14 09:50:15;;;;;;;3.08;1.40;;;24.30;58.20;;;;;;4973653;28;20035;-69
2023/06/14 09:52:44;;;;;;;6.53;1.75;;;24.30;58.50;;;;;;4968129;28;20088;-69
2023/06/14 09:55:16;;;;;;;2.15;1.33;;;24.50;56.90;;;;;;4959246;28;20030;-69
2023/06/14 09:57:45;;;;;;;7.00;2.38;;;24.40;57.00;;;;;;4971342;28;20499;-68
2023/06/14 10:00:15;;;;;;;2.35;1.33;;;24.50;58.00;;;;;;4959505;28;20031;-69
2023/06/14 10:02:47;;;;;;;4.15;1.88;;;24.50;58.60;;;;;;4944948;28;20026;-68
2023/06/14 10:05:17;;;;;;;3.05;1.40;;;24.50;58.50;;;;;;4960169;28;20121;-68
2023/06/14 10:07:53;;;;;;;2.37;1.30;;;24.50;58.50;;;;;;4968216;28;20062;-69
2023/06/14 10:10:19;;;;;;;4.45;2.10;;;24.60;58.00;;;;;;4957400;28;20067;-69
2023/06/14 10:12:46;;;;;;;3.28;1.48;;;24.50;58.00;;;;;;4967429;28;20027;-69
2023/06/14 10:15:23;;;;;;;3.75;1.48;;;24.80;58.30;;;;;;4959199;28;20062;-69
2023/06/14 10:18:04;;;;;;;3.13;1.30;;;24.80;56.80;;;;;;4967216;28;20065;-69
2023/06/14 10:20:48;;;;;;;2.95;1.58;;;24.90;57.10;;;;;;4963995;28;20522;-69
2023/06/14 10:23:22;;;;;;;2.55;1.30;;;25.00;56.40;;;;;;4963769;28;20438;-69
2023/06/14 10:25:57;;;;;;;2.30;1.38;;;25.30;55.70;;;;;;4964491;28;20049;-69
2023/06/14 10:28:24;;;;;;;1.95;1.30;;;25.20;55.10;;;;;;4962959;28;20026;-69
2023/06/14 10:31:11;;;;;;;4.07;1.75;;;25.70;55.60;;;;;;4963937;28;20023;-69
2023/06/14 10:33:53;;;;;;;4.03;1.42;;;25.80;55.10;;;;;;4962861;28;20022;-69
2023/06/14 10:36:31;;;;;;;2.13;1.15;;;25.50;55.00;;;;;;4965293;28;20045;-67
2023/06/14 10:39:08;;;;;;;4.15;1.65;;;25.50;54.70;;;;;;4975877;28;20071;-69
2023/06/14 10:41:38;;;;;;;2.20;1.45;;;25.30;54.90;;;;;;4986219;28;20032;-68
2023/06/14 10:44:13;;;;;;;;;;;25.60;56.00;;;;;;4976058;28;20089;-69
2023/06/14 10:46:52;;;;;;;3.08;1.70;;;25.70;55.90;;;;;;4969226;28;20325;-69
2023/06/14 10:49:19;;;;;;;4.05;1.42;;;26.00;55.70;;;;;;4977012;28;20042;-69
2023/06/14 10:51:52;;;;;;;4.30;1.30;;;26.30;54.30;;;;;;4989780;28;20029;-69
2023/06/14 10:54:22;;;;;;;3.05;1.55;;;26.10;54.90;;;;;;4977468;28;20054;-69
2023/06/14 10:56:52;;;;;;;7.38;1.95;;;25.50;55.40;;;;;;4972711;28;20034;-70
2023/06/14 10:59:19;;;;;;;;;;;25.70;55.70;;;;;;4958491;28;20399;-68
2023/06/14 11:02:24;;;;;;;2.72;1.40;;;25.80;55.20;;;;;;4956313;28;19941;-68
2023/06/14 11:04:52;;;;;;;4.18;1.65;;;25.80;55.50;;;;;;4963488;28;20030;-68
2023/06/14 11:07:53;;;;;;;3.50;1.60;;;26.30;55.00;;;;;;4967245;28;20126;-69
2023/06/14 11:10:39;;;;;;;3.00;1.20;;;26.30;54.40;;;;;;4979831;28;20035;-68
2023/06/14 11:13:07;;;;;;;3.85;1.67;;;26.00;54.70;;;;;;4979393;28;20431;-68
2023/06/14 11:15:36;;;;;;;2.22;1.33;;;26.10;54.50;;;;;;4965789;28;20786;-68
2023/06/14 11:18:07;;;;;;;3.17;1.40;;;26.10;54.70;;;;;;4984307;28;20064;-69
2023/06/14 11:20:35;;;;;;;2.72;1.55;;;25.60;54.70;;;;;;4959289;28;20067;-69
2023/06/14 11:23:01;;;;;;;4.22;1.30;;;26.00;54.90;;;;;;4979349;28;20558;-68
2023/06/14 11:25:30;;;;;;;3.90;1.45;;;26.60;54.30;;;;;;4981886;28;20045;-69
2023/06/14 11:27:57;;;;;;;2.78;1.27;;;26.40;52.80;;;;;;4968352;28;20090;-69
2023/06/14 11:30:23;;;;;;;2.03;1.17;;;26.50;53.60;;;;;;4948678;28;20119;-69
2023/06/14 11:32:51;;;;;;;6.00;1.50;;;26.80;53.30;;;;;;4968434;28;20015;-70
2023/06/14 11:35:18;;;;;;;2.75;1.45;;;27.40;52.90;;;;;;4963648;28;20724;-70
2023/06/14 11:37:45;;;;;;;3.00;1.33;;;27.40;53.50;;;;;;4970082;28;20029;-69
2023/06/14 11:40:12;;;;;;;2.90;1.27;;;27.70;52.40;;;;;;4978614;28;20435;-70
2023/06/14 11:42:41;;;;;;;2.92;1.48;;;27.30;51.90;;;;;;4980697;28;20538;-69
2023/06/14 11:45:11;;;;;;;2.42;1.20;;;27.90;52.40;;;;;;4955901;28;20394;-69
2023/06/14 11:47:39;;;;;;;2.45;1.63;;;27.70;51.00;;;;;;4973052;28;20117;-70
2023/06/14 11:50:10;;;;;;;4.00;1.38;;;28.20;51.80;;;;;;4947142;28;20031;-69
2023/06/14 11:52:37;;;;;;;1.95;1.05;;;27.80;52.10;;;;;;4956009;28;20082;-69
2023/06/14 11:55:06;;;;;;;2.35;1.17;;;27.80;51.60;;;;;;4976184;28;20034;-69
2023/06/14 11:57:36;;;;;;;1.95;1.20;;;27.70;51.80;;;;;;4971598;28;20561;-69
2023/06/14 12:00:15;;;;;;;2.50;1.40;;;26.80;52.70;;;;;;4960781;28;20494;-68
2023/06/14 12:02:41;;;;;;;6.30;1.70;;;27.30;52.10;;;;;;4958880;28;20046;-68
2023/06/14 12:05:09;;;;;;;2.67;1.33;;;27.80;51.90;;;;;;4977685;28;20027;-68
2023/06/14 12:07:39;;;;;;;2.35;1.30;;;27.70;51.40;;;;;;4988745;28;20119;-68
2023/06/14 12:10:08;;;;;;;3.47;1.33;;;27.80;51.80;;;;;;4956122;28;20042;-69
2023/06/14 12:12:39;;;;;;;1.90;1.30;;;28.10;51.40;;;;;;4970930;28;20038;-68
2023/06/14 12:15:07;;;;;;;2.28;1.30;;;28.30;51.10;;;;;;4961466;28;20122;-68
2023/06/14 12:17:38;;;;;;;3.70;1.00;;;28.90;51.10;;;;;;4971624;28;20031;-68
2023/06/14 12:20:15;;;;;;;1.92;1.08;;;29.00;50.90;;;;;;4960509;28;20030;-68
2023/06/14 12:23:08;;;;;;;7.30;1.40;;;28.80;50.50;;;;;;4946296;28;20042;-68
2023/06/14 12:25:36;;;;;;;3.58;1.40;;;28.30;51.30;;;;;;4963026;28;20045;-69
2023/06/14 12:28:07;;;;;;;2.45;1.35;;;28.70;50.70;;;;;;4983359;28;20101;-69
2023/06/14 12:30:35;;;;;;;3.08;1.30;;;29.00;50.40;;;;;;4981699;28;20054;-69
2023/06/14 12:33:05;;;;;;;2.88;1.20;;;29.30;50.20;;;;;;4965456;28;20551;-70
2023/06/14 12:35:31;;;;;;;3.10;1.48;;;29.20;48.90;;;;;;4980568;28;20038;-71
2023/06/14 12:37:57;;;;;;;2.85;1.05;;;28.70;48.40;;;;;;4965281;28;20407;-75
2023/06/14 12:40:23;;;;;;;2.30;1.20;;;27.80;49.80;;;;;;4959210;28;20039;-68
2023/06/14 12:42:50;;;;;;;3.00;1.30;;;28.40;51.50;;;;;;4967341;28;20145;-71
2023/06/14 12:45:16;;;;;;;3.85;1.50;;;29.00;49.70;;;;;;4978705;28;20117;-77
2023/06/14 12:47:42;;;;;;;3.13;1.88;;;28.30;50.10;;;;;;4986699;28;20359;-70
2023/06/14 12:50:08;;;;;;;3.83;1.63;;;27.40;50.70;;;;;;4945325;28;20043;-57
2023/06/14 12:52:36;;;;;;;2.00;1.20;;;26.90;51.60;;;;;;4970160;28;20398;-54